createdAt,value
2023-03-06T00:01:00.480Z,78.84
2023-03-06T00:03:28.036Z,78.99
2023-03-06T00:05:57.172Z,78.42
2023-03-06T00:08:25.202Z,78.70
2023-03-06T00:10:52.017Z,78.32
2023-03-06T00:13:21.475Z,78.54
2023-03-06T00:15:49.003Z,77.70
2023-03-06T00:18:15.983Z,77.66
2023-03-06T00:20:44.265Z,78.02
2023-03-06T00:23:11.224Z,77.86
2023-03-06T00:25:38.790Z,77.48
2023-03-06T00:28:06.097Z,77.69
2023-03-06T00:30:33.019Z,78.07
2023-03-06T00:32:59.622Z,76.84
2023-03-06T00:35:26.315Z,76.95
2023-03-06T00:37:52.908Z,77.13
2023-03-06T00:40:21.058Z,77.14
2023-03-06T00:42:48.568Z,76.77
2023-03-06T00:45:15.415Z,77.12
2023-03-06T00:47:42.269Z,77.38
2023-03-06T00:50:09.878Z,77.67
2023-03-06T00:52:36.593Z,77.48
2023-03-06T00:55:03.560Z,77.21
2023-03-06T00:57:30.124Z,76.86
2023-03-06T00:59:57.295Z,76.71
2023-03-06T01:02:24.091Z,76.99
2023-03-06T01:04:50.702Z,76.79
2023-03-06T01:07:17.354Z,76.68
2023-03-06T01:09:43.946Z,76.73
2023-03-06T01:12:10.615Z,76.83
2023-03-06T01:14:37.381Z,76.91
2023-03-06T01:17:04.055Z,77.03
2023-03-06T01:19:30.800Z,77.22
2023-03-06T01:21:57.561Z,77.08
2023-03-06T01:24:25.748Z,77.42
2023-03-06T01:26:56.283Z,77.59
2023-03-06T01:29:22.953Z,77.11
2023-03-06T01:31:49.577Z,77.23
2023-03-06T01:34:16.242Z,77.39
2023-03-06T01:36:42.899Z,77.34
2023-03-06T01:39:10.592Z,76.83
2023-03-06T01:41:37.236Z,77.35
2023-03-06T01:44:03.917Z,77.22
2023-03-06T01:46:30.707Z,77.35
2023-03-06T01:48:59.336Z,77.21
2023-03-06T01:51:31.079Z,77.52
2023-03-06T01:54:01.892Z,77.43
2023-03-06T01:56:28.823Z,77.09
2023-03-06T01:58:56.618Z,77.11
2023-03-06T02:01:23.590Z,77.26
2023-03-06T02:03:51.274Z,77.39
2023-03-06T02:06:21.651Z,77.76
2023-03-06T02:08:51.611Z,77.76
2023-03-06T02:11:21.884Z,77.99
2023-03-06T02:13:49.708Z,78.07
2023-03-06T02:16:23.664Z,78.06
2023-03-06T02:18:51.511Z,77.17
2023-03-06T02:21:27.349Z,77.44
2023-03-06T02:24:09.196Z,77.19
2023-03-06T02:26:37.687Z,77.55
2023-03-06T02:29:05.370Z,77.00
2023-03-06T02:31:34.181Z,76.75
2023-03-06T02:34:08.438Z,76.81
2023-03-06T02:36:40.671Z,76.72
2023-03-06T02:39:08.052Z,76.85
2023-03-06T02:41:34.998Z,77.29
2023-03-06T02:44:01.877Z,76.86
2023-03-06T02:46:28.803Z,77.25
2023-03-06T02:48:56.296Z,77.08
2023-03-06T02:51:23.453Z,76.67
2023-03-06T02:53:50.409Z,77.08
2023-03-06T02:56:17.764Z,76.69
2023-03-06T02:58:44.356Z,76.80
2023-03-06T03:01:11.077Z,76.65
2023-03-06T03:03:38.518Z,76.29
2023-03-06T03:06:06.424Z,76.88
2023-03-06T03:08:34.909Z,76.66
2023-03-06T03:11:04.022Z,76.49
2023-03-06T03:13:37.992Z,76.25
2023-03-06T03:16:14.115Z,76.88
2023-03-06T03:18:44.319Z,76.84
2023-03-06T03:21:13.496Z,77.28
2023-03-06T03:23:40.468Z,77.69
2023-03-06T03:26:13.284Z,77.68
2023-03-06T03:28:43.668Z,77.68
2023-03-06T03:31:13.484Z,77.25
2023-03-06T03:33:41.081Z,77.59
2023-03-06T03:36:08.913Z,77.82
2023-03-06T03:38:39.505Z,77.78
2023-03-06T03:41:06.474Z,77.92
2023-03-06T03:43:33.622Z,78.18
2023-03-06T03:46:00.902Z,78.48
2023-03-06T03:48:28.239Z,78.19
2023-03-06T03:50:55.927Z,78.12
2023-03-06T03:53:24.125Z,78.08
2023-03-06T03:55:50.865Z,78.15
2023-03-06T03:58:20.084Z,78.39
2023-03-06T04:00:47.868Z,78.37
2023-03-06T04:03:14.944Z,78.33
2023-03-06T04:05:44.491Z,78.68
2023-03-06T04:08:14.492Z,78.63
2023-03-06T04:10:43.884Z,78.55
2023-03-06T04:13:12.201Z,78.66
2023-03-06T04:15:42.504Z,78.75
2023-03-06T04:18:10.151Z,78.47
2023-03-06T04:20:37.000Z,78.10
2023-03-06T04:23:04.622Z,78.50
2023-03-06T04:25:32.036Z,78.38
2023-03-06T04:28:01.220Z,78.77
2023-03-06T04:30:28.938Z,78.30
2023-03-06T04:32:55.820Z,78.64
2023-03-06T04:35:22.591Z,77.72
2023-03-06T04:37:56.478Z,77.78
2023-03-06T04:40:28.832Z,77.85
2023-03-06T04:42:57.103Z,77.85
2023-03-06T04:45:24.855Z,77.51
2023-03-06T04:47:51.925Z,77.60
2023-03-06T04:50:19.440Z,77.42
2023-03-06T04:52:46.508Z,77.37
2023-03-06T04:55:15.136Z,76.89
2023-03-06T04:57:43.740Z,76.81
2023-03-06T05:00:19.471Z,76.67
2023-03-06T05:02:46.700Z,76.52
2023-03-06T05:05:14.125Z,76.59
2023-03-06T05:07:41.371Z,77.06
2023-03-06T05:10:19.333Z,76.88
2023-03-06T05:12:45.972Z,76.77
2023-03-06T05:15:13.639Z,77.11
2023-03-06T05:17:40.472Z,77.26
2023-03-06T05:20:09.722Z,77.42
2023-03-06T05:22:36.773Z,77.49
2023-03-06T05:25:04.866Z,77.28
2023-03-06T05:27:31.996Z,77.53
2023-03-06T05:29:58.737Z,77.40
2023-03-06T05:32:25.398Z,78.00
2023-03-06T05:34:52.120Z,77.57
2023-03-06T05:37:18.782Z,77.45
2023-03-06T05:39:45.655Z,77.86
2023-03-06T05:42:12.282Z,77.26
2023-03-06T05:44:38.949Z,77.31
2023-03-06T05:47:05.772Z,77.28
2023-03-06T05:49:34.267Z,77.11
2023-03-06T05:52:03.947Z,76.55
2023-03-06T05:54:34.831Z,76.39
2023-03-06T05:57:01.766Z,76.54
2023-03-06T05:59:29.059Z,76.78
2023-03-06T06:01:56.529Z,76.80
2023-03-06T06:04:26.058Z,76.63
2023-03-06T06:06:58.562Z,76.81
2023-03-06T06:09:27.072Z,76.58
2023-03-06T06:11:56.104Z,76.90
2023-03-06T06:14:23.260Z,76.34
2023-03-06T06:16:51.560Z,76.64
2023-03-06T06:19:20.952Z,76.50
2023-03-06T06:21:50.413Z,76.18
2023-03-06T06:24:19.148Z,76.12
2023-03-06T06:26:46.859Z,76.46
2023-03-06T06:29:13.748Z,76.54
2023-03-06T06:31:40.601Z,76.24
2023-03-06T06:34:07.986Z,76.16
2023-03-06T06:36:34.647Z,75.85
2023-03-06T06:39:01.301Z,75.64
2023-03-06T06:41:46.948Z,75.31
2023-03-06T06:44:16.210Z,75.58
2023-03-06T06:49:32.302Z,75.13
2023-03-06T06:51:59.300Z,75.05
2023-03-06T06:54:26.685Z,74.79
2023-03-06T06:56:53.766Z,75.14
2023-03-06T06:59:20.705Z,74.72
2023-03-06T07:01:47.432Z,74.29
2023-03-06T07:04:14.671Z,74.20
2023-03-06T07:06:42.365Z,73.93
2023-03-06T07:09:09.242Z,74.12
2023-03-06T07:11:37.846Z,72.90
2023-03-06T07:14:04.461Z,72.75
2023-03-06T07:16:31.075Z,72.45
2023-03-06T07:18:57.719Z,72.66
2023-03-06T07:21:24.360Z,72.51
2023-03-06T07:23:50.975Z,72.32
2023-03-06T07:26:17.571Z,72.19
2023-03-06T07:28:52.431Z,71.73
2023-03-06T07:31:24.875Z,71.29
2023-03-06T07:33:54.421Z,71.85
2023-03-06T07:36:23.084Z,71.84
2023-03-06T07:38:50.078Z,71.44
2023-03-06T07:41:20.455Z,71.00
2023-03-06T07:43:48.607Z,71.08
2023-03-06T07:46:16.405Z,70.38
2023-03-06T07:48:43.220Z,70.61
2023-03-06T07:51:16.239Z,70.15
2023-03-06T07:53:43.458Z,70.04
2023-03-06T07:56:11.716Z,70.74
2023-03-06T07:58:40.001Z,69.17
2023-03-06T08:01:12.671Z,69.74
2023-03-06T08:03:39.696Z,68.90
2023-03-06T08:06:13.892Z,68.58
2023-03-06T08:08:42.438Z,68.36
2023-03-06T08:11:11.795Z,68.48
2023-03-06T08:13:38.996Z,68.07
2023-03-06T08:16:06.395Z,67.77
2023-03-06T08:18:33.791Z,67.13
2023-03-06T08:21:06.398Z,67.78
2023-03-06T08:23:34.178Z,68.04
2023-03-06T08:26:06.506Z,66.93
2023-03-06T08:28:33.657Z,66.89
2023-03-06T08:31:12.433Z,66.97
2023-03-06T08:33:40.852Z,67.15
2023-03-06T08:36:07.885Z,67.04
2023-03-06T08:38:34.461Z,67.30
2023-03-06T08:41:01.222Z,67.60
2023-03-06T08:43:28.106Z,66.89
2023-03-06T08:45:56.431Z,67.79
2023-03-06T08:48:23.319Z,67.52
2023-03-06T08:50:50.425Z,68.03
2023-03-06T08:53:17.510Z,67.83
2023-03-06T08:55:44.444Z,67.65
2023-03-06T08:58:11.184Z,68.02
2023-03-06T09:00:38.937Z,67.80
2023-03-06T09:03:06.112Z,67.17
2023-03-06T09:05:32.881Z,68.03
2023-03-06T09:07:59.593Z,66.93
2023-03-06T09:10:27.464Z,66.61
2023-03-06T09:12:55.177Z,67.86
2023-03-06T09:15:23.440Z,66.88
2023-03-06T09:17:50.925Z,67.17
2023-03-06T09:20:18.537Z,67.67
2023-03-06T09:22:47.888Z,68.50
2023-03-06T09:25:20.140Z,69.68
2023-03-06T09:27:51.410Z,70.87
2023-03-06T09:30:22.478Z,71.22
2023-03-06T09:32:49.102Z,71.13
2023-03-06T09:35:17.945Z,71.94
2023-03-06T09:37:45.450Z,72.28
2023-03-06T09:40:20.869Z,71.34
2023-03-06T09:42:47.509Z,70.87
2023-03-06T09:45:14.331Z,69.23
2023-03-06T09:47:47.436Z,68.24
2023-03-06T09:50:29.525Z,68.85
2023-03-06T09:53:23.864Z,66.94
2023-03-06T09:56:00.870Z,65.56
2023-03-06T09:58:30.089Z,65.09
2023-03-06T10:01:04.039Z,64.71
2023-03-06T10:03:50.863Z,64.21
2023-03-06T10:06:32.455Z,64.83
2023-03-06T10:09:24.665Z,64.22
2023-03-06T10:12:06.595Z,64.35
2023-03-06T10:14:57.851Z,65.12
2023-03-06T10:17:26.231Z,64.73
2023-03-06T10:19:52.944Z,64.54
2023-03-06T10:22:48.071Z,65.62
2023-03-06T10:25:37.226Z,65.83
2023-03-06T10:28:13.848Z,65.69
2023-03-06T10:30:48.946Z,66.11
2023-03-06T10:33:28.428Z,66.05
2023-03-06T10:35:56.360Z,67.22
2023-03-06T10:38:29.983Z,68.36
2023-03-06T10:41:11.705Z,68.02
2023-03-06T10:43:39.415Z,68.72
2023-03-06T10:46:08.510Z,68.19
2023-03-06T10:48:36.746Z,68.86
2023-03-06T10:51:19.050Z,69.21
2023-03-06T10:54:00.432Z,68.46
2023-03-06T10:56:30.081Z,68.79
2023-03-06T10:59:06.843Z,68.93
2023-03-06T11:01:34.128Z,68.91
2023-03-06T11:04:21.204Z,68.77
2023-03-06T11:06:48.393Z,69.61
2023-03-06T11:09:24.279Z,72.52
2023-03-06T11:11:51.892Z,73.77
2023-03-06T11:14:22.874Z,75.19
2023-03-06T11:16:54.837Z,76.19
2023-03-06T11:19:27.200Z,78.41
2023-03-06T11:22:01.920Z,78.19
2023-03-06T11:24:40.544Z,79.10
2023-03-06T11:27:34.462Z,80.34
2023-03-06T11:30:10.429Z,81.06
2023-03-06T11:32:46.519Z,81.65
2023-03-06T11:35:20.854Z,82.25
2023-03-06T11:38:00.212Z,81.73
2023-03-06T11:40:48.372Z,81.41
2023-03-06T11:43:42.312Z,81.20
2023-03-06T11:46:28.208Z,80.88
2023-03-06T11:49:17.151Z,80.84
2023-03-06T11:51:51.077Z,80.19
2023-03-06T11:54:17.747Z,79.39
2023-03-06T11:56:47.293Z,79.68
2023-03-06T11:59:47.974Z,79.78
2023-03-06T12:02:20.505Z,78.73
2023-03-06T12:04:57.201Z,78.31
2023-03-06T12:08:05.801Z,77.57
2023-03-06T12:10:51.711Z,77.97
2023-03-06T12:13:18.843Z,77.93
2023-03-06T12:15:48.184Z,76.98
2023-03-06T12:18:21.893Z,76.45
2023-03-06T12:21:14.977Z,76.08
2023-03-06T12:23:41.529Z,74.90
2023-03-06T12:26:26.847Z,76.17
2023-03-06T12:28:59.293Z,75.41
2023-03-06T12:31:35.869Z,75.35
2023-03-06T12:34:21.061Z,75.49
2023-03-06T12:37:16.075Z,74.25
2023-03-06T12:39:55.385Z,74.89
2023-03-06T12:42:46.495Z,75.04
2023-03-06T12:45:34.252Z,75.46
2023-03-06T12:48:02.031Z,74.28
2023-03-06T12:50:38.424Z,72.25
2023-03-06T12:53:12.089Z,72.43
2023-03-06T12:55:43.921Z,72.75
2023-03-06T12:58:31.799Z,72.13
2023-03-06T13:01:20.800Z,72.33
2023-03-06T13:04:30.495Z,71.77
2023-03-06T13:07:30.830Z,70.13
2023-03-06T13:09:57.681Z,70.30
2023-03-06T13:12:55.568Z,69.93
2023-03-06T13:16:03.420Z,68.78
2023-03-06T13:18:33.005Z,69.07
2023-03-06T13:20:59.646Z,69.35
2023-03-06T13:23:29.303Z,68.62
2023-03-06T13:25:57.833Z,68.63
2023-03-06T13:28:48.598Z,69.65
2023-03-06T13:31:27.793Z,70.17
2023-03-06T13:34:01.744Z,69.12
2023-03-06T13:36:39.470Z,68.56
2023-03-06T13:39:10.182Z,68.44
2023-03-06T13:41:43.041Z,68.55
2023-03-06T13:44:24.940Z,67.89
2023-03-06T13:47:16.969Z,67.63
2023-03-06T13:49:46.565Z,64.63
2023-03-06T13:52:43.185Z,64.40
2023-03-06T13:55:26.637Z,64.93
2023-03-06T13:57:59.267Z,65.21
2023-03-06T14:01:07.421Z,66.96
2023-03-06T14:03:49.424Z,67.36
2023-03-06T14:06:34.445Z,67.29
2023-03-06T14:09:06.728Z,67.99
2023-03-06T14:11:36.329Z,68.19
2023-03-06T14:14:03.686Z,68.38
2023-03-06T14:16:50.045Z,68.87
2023-03-06T14:19:18.669Z,69.07
2023-03-06T14:21:45.251Z,68.49
2023-03-06T14:24:17.594Z,68.92
2023-03-06T14:26:48.650Z,68.59
2023-03-06T14:29:26.407Z,68.81
2023-03-06T14:31:56.127Z,69.62
2023-03-06T14:34:26.885Z,70.96
2023-03-06T14:36:56.033Z,71.26
2023-03-06T14:39:37.588Z,71.30
2023-03-06T14:42:26.849Z,70.91
2023-03-06T14:45:15.937Z,71.05
2023-03-06T14:47:43.317Z,71.50
2023-03-06T14:50:30.503Z,70.59
2023-03-06T14:53:16.970Z,71.09
2023-03-06T14:55:56.633Z,71.69
2023-03-06T14:58:48.234Z,71.57
2023-03-06T15:01:15.589Z,71.31
2023-03-06T15:03:51.172Z,71.25
2023-03-06T15:06:20.039Z,71.21
2023-03-06T15:08:52.087Z,71.30
2023-03-06T15:11:18.862Z,71.60
2023-03-06T15:14:00.743Z,71.73
2023-03-06T15:16:30.094Z,71.86
2023-03-06T15:19:01.124Z,71.98
2023-03-06T15:21:36.154Z,73.30
2023-03-06T15:24:31.576Z,71.37
2023-03-06T15:27:02.685Z,69.35
2023-03-06T15:29:29.532Z,67.95
2023-03-06T15:32:37.080Z,68.25
2023-03-06T15:35:37.893Z,67.89
2023-03-06T15:38:29.856Z,68.03
2023-03-06T15:40:58.682Z,68.63
2023-03-06T15:43:26.091Z,69.29
2023-03-06T15:45:59.108Z,70.09
2023-03-06T15:48:25.835Z,70.56
2023-03-06T15:50:52.610Z,71.99
2023-03-06T15:53:20.364Z,72.34
2023-03-06T15:55:47.587Z,73.29
2023-03-06T15:58:17.423Z,74.54
2023-03-06T16:00:44.972Z,75.91
2023-03-06T16:03:12.176Z,76.77
2023-03-06T16:05:38.935Z,77.64
2023-03-06T16:08:06.274Z,78.14
2023-03-06T16:10:43.816Z,78.02
2023-03-06T16:13:20.010Z,79.20
2023-03-06T16:15:49.347Z,80.74
2023-03-06T16:18:17.036Z,81.15
2023-03-06T16:20:43.858Z,81.76
2023-03-06T16:23:10.861Z,83.01
2023-03-06T16:25:43.188Z,83.93
2023-03-06T16:28:15.471Z,84.24
2023-03-06T16:30:43.817Z,84.63
2023-03-06T16:33:11.939Z,84.55
2023-03-06T16:35:39.756Z,84.47
2023-03-06T16:38:06.392Z,84.70
2023-03-06T16:40:38.289Z,84.90
2023-03-06T16:43:05.394Z,85.47
2023-03-06T16:45:37.249Z,85.02
2023-03-06T16:48:04.664Z,84.97
2023-03-06T16:50:38.704Z,84.71
2023-03-06T16:53:06.938Z,84.93
2023-03-06T16:55:33.714Z,85.60
2023-03-06T16:58:00.396Z,85.38
2023-03-06T17:00:31.069Z,85.42
2023-03-06T17:02:57.906Z,85.40
2023-03-06T17:05:24.502Z,85.81
2023-03-06T17:07:51.367Z,85.62
2023-03-06T17:10:21.826Z,85.71
2023-03-06T17:12:49.147Z,85.52
2023-03-06T17:15:15.810Z,85.97
2023-03-06T17:17:42.650Z,86.04
2023-03-06T17:20:12.549Z,86.07
2023-03-06T17:22:39.374Z,85.69
2023-03-06T17:25:08.061Z,85.60
2023-03-06T17:27:35.748Z,85.34
2023-03-06T17:30:02.841Z,85.67
2023-03-06T17:32:29.549Z,85.63
2023-03-06T17:34:56.371Z,86.22
2023-03-06T17:37:23.619Z,86.14
2023-03-06T17:39:50.241Z,86.16
2023-03-06T17:42:17.062Z,86.23
2023-03-06T17:44:43.670Z,86.42
2023-03-06T17:47:10.905Z,86.47
2023-03-06T17:49:37.930Z,86.39
2023-03-06T17:52:05.775Z,85.98
2023-03-06T17:54:33.217Z,85.97
2023-03-06T17:57:03.257Z,85.83
2023-03-06T17:59:30.499Z,85.83
2023-03-06T18:01:58.038Z,86.10
2023-03-06T18:04:25.670Z,85.67
2023-03-06T18:06:52.589Z,85.76
2023-03-06T18:09:19.410Z,85.29
2023-03-06T18:11:46.061Z,85.37
2023-03-06T18:14:12.628Z,85.54
2023-03-06T18:16:39.256Z,85.31
2023-03-06T18:19:05.892Z,85.92
2023-03-06T18:21:32.587Z,85.90
2023-03-06T18:23:59.178Z,85.99
2023-03-06T18:26:28.302Z,86.33
2023-03-06T18:29:01.381Z,86.80
2023-03-06T18:31:34.676Z,86.79
2023-03-06T18:34:07.619Z,86.97
2023-03-06T18:36:34.987Z,87.11
2023-03-06T18:39:03.746Z,86.44
2023-03-06T18:41:31.453Z,86.64
2023-03-06T18:44:00.073Z,86.07
2023-03-06T18:46:31.275Z,86.14
2023-03-06T18:48:58.280Z,86.24
2023-03-06T18:51:25.634Z,86.23
2023-03-06T18:53:52.334Z,86.07
2023-03-06T18:56:21.825Z,86.25
2023-03-06T18:58:50.195Z,86.47
2023-03-06T19:01:17.560Z,86.21
2023-03-06T19:03:44.626Z,86.41
2023-03-06T19:06:13.511Z,86.36
2023-03-06T19:08:40.337Z,86.31
2023-03-06T19:11:12.115Z,86.36
2023-03-06T19:13:39.482Z,86.39
2023-03-06T19:16:06.814Z,86.91
2023-03-06T19:18:34.013Z,86.56
2023-03-06T19:21:09.443Z,86.26
2023-03-06T19:23:36.515Z,86.35
2023-03-06T19:26:03.163Z,86.16
2023-03-06T19:28:29.862Z,86.34
2023-03-06T19:30:57.018Z,86.18
2023-03-06T19:33:23.618Z,86.30
2023-03-06T19:35:50.230Z,86.24
2023-03-06T19:38:16.899Z,86.20
2023-03-06T19:40:50.586Z,86.33
2023-03-06T19:43:17.201Z,86.44
2023-03-06T19:45:44.550Z,86.69
2023-03-06T19:48:12.498Z,86.58
2023-03-06T19:50:40.430Z,86.67
2023-03-06T19:53:07.848Z,86.52
2023-03-06T19:55:34.762Z,86.24
2023-03-06T19:58:01.397Z,86.15
2023-03-06T20:00:28.946Z,86.52
2023-03-06T20:02:55.985Z,85.97
2023-03-06T20:05:22.957Z,86.22
2023-03-06T20:07:49.849Z,86.25
2023-03-06T20:10:16.794Z,86.42
2023-03-06T20:12:43.550Z,86.59
2023-03-06T20:15:11.078Z,86.45
2023-03-06T20:17:40.456Z,86.49
2023-03-06T20:20:09.392Z,86.62
2023-03-06T20:22:37.095Z,86.27
2023-03-06T20:25:04.705Z,86.23
2023-03-06T20:27:31.308Z,86.27
2023-03-06T20:29:57.996Z,85.69
2023-03-06T20:32:24.595Z,86.04
2023-03-06T20:34:51.281Z,85.87
2023-03-06T20:37:18.073Z,85.90
2023-03-06T20:39:44.690Z,86.02
2023-03-06T20:42:11.351Z,86.62
2023-03-06T20:44:38.522Z,86.26
2023-03-06T20:47:05.412Z,86.26
2023-03-06T20:49:32.141Z,86.63
2023-03-06T20:51:58.759Z,86.98
2023-03-06T20:54:25.560Z,87.00
2023-03-06T20:56:52.128Z,87.13
2023-03-06T20:59:18.858Z,86.77
2023-03-06T21:01:47.910Z,86.91
2023-03-06T21:04:15.720Z,86.66
2023-03-06T21:06:46.514Z,86.27
2023-03-06T21:09:16.055Z,86.13
2023-03-06T21:11:43.130Z,86.36
2023-03-06T21:14:12.271Z,86.61
2023-03-06T21:16:38.997Z,85.88
2023-03-06T21:19:06.244Z,85.69
2023-03-06T21:21:34.768Z,85.46
2023-03-06T21:24:02.354Z,85.75
2023-03-06T21:26:31.101Z,85.73
2023-03-06T21:29:00.850Z,85.71
2023-03-06T21:31:28.723Z,85.93
2023-03-06T21:33:56.592Z,85.32
2023-03-06T21:36:23.370Z,85.17
2023-03-06T21:38:52.179Z,84.99
2023-03-06T21:41:20.190Z,85.21
2023-03-06T21:43:47.276Z,85.31
2023-03-06T21:46:14.168Z,85.51
2023-03-06T21:48:41.025Z,85.39
2023-03-06T21:51:10.483Z,85.56
2023-03-06T21:53:37.835Z,85.81
2023-03-06T21:56:05.174Z,85.96
2023-03-06T21:58:32.227Z,86.05
2023-03-06T22:00:59.433Z,86.50
2023-03-06T22:03:26.436Z,86.35
2023-03-06T22:05:53.143Z,86.55
2023-03-06T22:08:28.091Z,86.27
2023-03-06T22:10:54.650Z,86.86
2023-03-06T22:13:22.207Z,86.73
2023-03-06T22:15:53.055Z,86.63
2023-03-06T22:18:20.262Z,86.55
2023-03-06T22:20:47.267Z,86.70
2023-03-06T22:23:14.214Z,86.72
2023-03-06T22:25:40.846Z,86.87
2023-03-06T22:28:07.716Z,86.82
2023-03-06T22:30:34.364Z,86.21
2023-03-06T22:33:01.086Z,86.38
2023-03-06T22:35:27.762Z,86.07
2023-03-06T22:37:54.360Z,85.63
2023-03-06T22:40:20.967Z,85.81
2023-03-06T22:42:47.679Z,85.95
2023-03-06T22:45:14.401Z,85.68
2023-03-06T22:47:40.975Z,83.82
2023-03-06T22:50:08.550Z,83.96
2023-03-06T22:52:35.448Z,84.57
2023-03-06T22:55:02.055Z,84.24
2023-03-06T22:57:29.924Z,84.64
2023-03-06T22:59:56.538Z,84.59
2023-03-06T23:02:23.372Z,84.91
2023-03-06T23:04:53.629Z,85.07
2023-03-06T23:07:20.939Z,85.30
2023-03-06T23:09:48.506Z,85.38
2023-03-06T23:12:33.865Z,84.90
2023-03-06T23:15:19.175Z,84.56
2023-03-06T23:18:04.624Z,84.55
2023-03-06T23:20:49.947Z,84.70
2023-03-06T23:23:36.004Z,84.45
2023-03-06T23:26:04.983Z,84.42
2023-03-06T23:28:32.291Z,84.29
2023-03-06T23:30:59.038Z,84.05
2023-03-06T23:33:25.715Z,84.15
2023-03-06T23:35:52.396Z,84.29
2023-03-06T23:38:19.204Z,84.31
2023-03-06T23:40:45.896Z,84.33
2023-03-06T23:43:12.478Z,83.97
2023-03-06T23:45:39.089Z,83.63
2023-03-06T23:48:07.863Z,83.87
2023-03-06T23:50:34.494Z,84.07
2023-03-06T23:53:01.080Z,83.92
2023-03-06T23:55:27.669Z,83.97
2023-03-06T23:57:54.342Z,84.07
